.
WxDataArchive / Data Records for 2015-07-05
2015-07-04 July 2015 2015-07-06

Data Records for Sunday, 05 July 2015

Time	Temp	Chill	HIndex	Humid	Dewpt	 Wind 	HiWind	WindDir	Rain 	Barom
-----	----	-----	------	-----	-----	------	------	-------	-----	-----
00:00	63.5	63.5	63.5	85	58.9	0	0	---	0.00	30.015 
00:05	63.4	63.4	63.4	85	58.8	0	0	---	0.00	30.015 
00:10	63.4	63.4	63.4	85	58.8	0	0	---	0.00	30.015 
00:15	63.2	63.2	63.2	85	58.6	0	0	---	0.00	30.014 
00:20	63.1	63.1	63.1	85	58.5	0	0	---	0.00	30.014 
00:25	62.9	62.9	62.9	86	58.6	0	0	---	0.00	30.014 
00:30	62.7	62.7	62.7	86	58.4	0	0	---	0.00	30.015 
00:35	62.6	62.6	62.6	86	58.3	0	0	---	0.00	30.015 
00:40	62.4	62.4	62.4	86	58.2	0	0	---	0.00	30.015 
00:45	62.3	62.3	62.3	86	58.1	0	0	---	0.00	30.018 
00:50	62.3	62.3	62.3	87	58.4	0	0	---	0.00	30.018 
00:55	62.1	62.1	62.1	87	58.2	0	0	---	0.00	30.018 
01:00	62.1	62.1	62.1	87	58.2	0	0	---	0.00	30.018 
01:05	62.0	62.0	62.0	87	58.1	0	0	---	0.00	30.018 
01:10	62.0	62.0	62.0	87	58.1	0	0	---	0.00	30.018 
01:15	61.8	61.8	61.8	88	58.2	0	0	---	0.00	30.017 
01:20	61.6	61.6	61.6	88	58.0	0	0	---	0.00	30.017 
01:25	61.6	61.6	61.6	88	58.0	0	0	---	0.00	30.017 
01:30	61.5	61.5	61.5	88	57.9	0	0	---	0.00	30.019 
01:35	61.3	61.3	61.3	88	57.7	0	0	---	0.00	30.019 
01:40	61.3	61.3	61.3	89	58.0	0	0	---	0.00	30.019 
01:45	61.3	61.3	61.3	89	58.0	0	0	---	0.00	30.019 
01:50	61.2	61.2	61.2	89	57.9	0	0	---	0.00	30.019 
01:55	61.0	61.0	61.0	89	57.7	0	0	---	0.00	30.019 
02:00	60.9	60.9	60.9	89	57.6	0	0	---	0.00	30.022 
02:05	60.9	60.9	60.9	89	57.6	0	0	---	0.00	30.022 
02:10	60.7	60.7	60.7	90	57.7	0	0	---	0.00	30.022 
02:15	60.7	60.7	60.7	90	57.7	0	0	---	0.00	30.024 
02:20	60.5	60.5	60.5	90	57.5	0	0	---	0.00	30.024 
02:25	60.5	60.5	60.5	90	57.5	0	0	---	0.00	30.024 
02:30	60.4	60.4	60.4	90	57.4	0	0	---	0.00	30.028 
02:35	60.2	60.2	60.2	90	57.3	0	0	---	0.00	30.028 
02:40	60.2	60.2	60.2	90	57.3	0	0	---	0.00	30.028 
02:45	60.1	60.1	60.1	90	57.2	0	0	---	0.00	30.029 
02:50	59.9	59.9	59.9	91	57.3	0	0	---	0.00	30.029 
02:55	59.9	59.9	59.9	91	57.3	0	0	---	0.00	30.029 
03:00	59.8	59.8	59.8	91	57.2	0	0	---	0.00	30.025 
03:05	59.8	59.8	59.8	91	57.2	0	0	---	0.00	30.025 
03:10	59.6	59.6	59.6	91	57.0	0	0	---	0.00	30.025 
03:15	59.5	59.5	59.5	91	56.9	0	0	---	0.00	30.021 
03:20	59.5	59.5	59.5	91	56.9	0	0	---	0.00	30.021 
03:25	59.3	59.3	59.3	92	57.0	0	0	---	0.00	30.021 
03:30	59.5	59.5	59.5	92	57.2	0	0	---	0.00	30.024 
03:35	59.3	59.3	59.3	92	57.0	0	0	---	0.00	30.024 
03:40	59.3	59.3	59.3	92	57.0	0	0	---	0.00	30.024 
03:45	59.2	59.2	59.2	92	56.9	0	0	---	0.00	30.022 
03:50	59.0	59.0	59.0	92	56.7	0	0	---	0.00	30.022 
03:55	59.0	59.0	59.0	92	56.7	0	0	---	0.00	30.022 
04:00	59.0	59.0	59.0	92	56.7	0	0	---	0.00	30.021 
04:05	58.9	58.9	58.9	92	56.6	0	0	---	0.00	30.021 
04:10	58.9	58.9	58.9	92	56.6	0	0	---	0.00	30.021 
04:15	58.7	58.7	58.7	92	56.4	0	0	---	0.00	30.023 
04:20	58.7	58.7	58.7	92	56.4	0	0	---	0.00	30.023 
04:25	58.7	58.7	58.7	93	56.7	0	0	---	0.00	30.023 
04:30	58.7	58.7	58.7	93	56.7	0	0	---	0.00	30.025 
04:35	58.7	58.7	58.7	93	56.7	0	0	---	0.00	30.025 
04:40	58.7	58.7	58.7	93	56.7	0	0	---	0.00	30.025 
04:45	58.7	58.7	58.7	93	56.7	0	0	---	0.00	30.033 
04:50	58.7	58.7	58.7	93	56.7	0	0	---	0.00	30.033 
04:55	58.7	58.7	58.7	93	56.7	0	0	---	0.00	30.033 
05:00	58.6	58.6	58.6	93	56.6	0	0	---	0.00	30.035 
05:05	58.6	58.6	58.6	93	56.6	0	0	---	0.00	30.035 
05:10	58.6	58.6	58.6	93	56.6	0	0	---	0.00	30.035 
05:15	58.4	58.4	58.4	93	56.4	0	0	---	0.00	30.040 
05:20	58.3	58.3	58.3	93	56.3	0	0	---	0.00	30.040 
05:25	58.3	58.3	58.3	93	56.3	0	0	---	0.00	30.040 
05:30	58.3	58.3	58.3	93	56.3	0	0	---	0.00	30.045 
05:35	58.1	58.1	58.1	93	56.1	0	0	---	0.00	30.045 
05:40	58.1	58.1	58.1	93	56.1	0	0	---	0.00	30.045 
05:45	58.1	58.1	58.1	93	56.1	0	0	---	0.00	30.049 
05:50	58.1	58.1	58.1	94	56.4	0	0	---	0.00	30.049 
05:55	58.1	58.1	58.1	94	56.4	0	0	---	0.00	30.049 
06:00	58.0	58.0	58.0	94	56.3	0	0	---	0.00	30.053 
06:05	58.0	58.0	58.0	94	56.3	0	0	---	0.00	30.053 
06:10	57.8	57.8	57.8	94	56.1	0	0	---	0.00	30.053 
06:15	57.6	57.6	57.6	94	55.9	0	0	---	0.00	30.061 
06:20	57.6	57.6	57.6	94	55.9	0	0	---	0.00	30.061 
06:25	57.5	57.5	57.5	94	55.8	0	0	---	0.00	30.061 
06:30	57.5	57.5	57.5	94	55.8	0	0	---	0.00	30.070 
06:35	57.6	57.6	57.6	94	55.9	0	0	---	0.00	30.070 
06:40	57.6	57.6	57.6	94	55.9	0	0	---	0.00	30.070 
06:45	57.8	57.8	57.8	94	56.1	0	0	---	0.00	30.070 
06:50	57.8	57.8	57.8	94	56.1	0	0	---	0.00	30.070 
06:55	58.0	58.0	58.0	94	56.3	0	0	---	0.00	30.070 
07:00	58.1	58.1	58.1	94	56.4	0	0	---	0.00	30.070 
07:05	58.3	58.3	58.3	94	56.6	0	0	---	0.00	30.070 
07:10	58.4	58.4	58.4	94	56.7	0	0	---	0.00	30.070 
07:15	58.6	58.6	58.6	94	56.9	0	0	---	0.00	30.069 
07:20	58.7	58.7	58.7	95	57.3	0	0	---	0.00	30.069 
07:25	58.9	58.9	58.9	95	57.5	0	0	---	0.00	30.069 
07:30	59.2	59.2	59.2	95	57.8	0	0	---	0.00	30.069 
07:35	59.3	59.3	59.3	95	57.9	0	0	---	0.00	30.069 
07:40	59.5	59.5	59.5	95	58.1	0	0	---	0.00	30.069 
07:45	59.8	59.8	59.8	95	58.4	0	0	---	0.00	30.066 
07:50	60.2	60.2	60.2	95	58.8	0	0	---	0.00	30.066 
07:55	60.7	60.7	60.7	95	59.3	0	0	---	0.00	30.066 
08:00	61.3	61.3	61.3	95	59.9	0	0	---	0.00	30.067 
08:05	62.0	62.0	62.0	95	60.5	0	0	---	0.00	30.067 
08:10	62.9	62.9	62.9	95	61.4	0	0	---	0.00	30.067 
08:15	63.7	63.7	63.7	94	61.9	0	0	---	0.00	30.064 
08:20	64.3	64.3	64.3	93	62.2	0	0	---	0.00	30.064 
08:25	65.0	65.0	65.0	92	62.6	0	0	---	0.00	30.064 
08:30	65.6	65.6	65.6	90	62.6	0	0	---	0.00	30.067 
08:35	66.1	66.1	66.1	88	62.4	0	0	---	0.00	30.067 
08:40	66.6	66.6	66.6	86	62.3	0	0	---	0.00	30.067 
08:45	67.1	67.1	67.1	83	61.8	0	0	---	0.00	30.068 
08:50	67.6	67.6	67.6	79	60.8	0	0	---	0.00	30.068 
08:55	68.3	68.3	68.3	77	60.8	0	0	---	0.00	30.068 
09:00	68.9	68.9	68.9	75	60.6	0	0	---	0.00	30.067 
09:05	69.4	69.4	69.4	72	60.0	0	0	---	0.00	30.067 
09:10	69.8	69.8	69.8	69	59.2	0	1	292	0.00	30.067 
09:15	69.9	69.9	69.9	69	59.3	0	1	292	0.00	30.076 
09:20	70.1	70.1	70.1	68	59.0	0	1	292	0.00	30.076 
09:25	70.6	70.6	70.6	68	59.5	0	0	---	0.00	30.076 
09:30	70.9	70.9	70.9	66	59.0	0	0	---	0.00	30.080 
09:35	71.1	71.1	71.1	65	58.7	0	1	292	0.00	30.080 
09:40	71.3	71.3	71.3	66	59.3	0	0	---	0.00	30.080 
09:45	71.6	71.6	71.6	65	59.2	0	1	292	0.00	30.080 
09:50	72.0	72.0	72.0	66	60.0	0	1	292	0.00	30.080 
09:55	72.0	72.0	72.0	65	59.6	0	1	292	0.00	30.080 
10:00	72.1	72.1	72.1	65	59.7	0	0	---	0.00	30.081 
10:05	72.5	72.5	72.5	65	60.0	0	0	---	0.00	30.081 
10:10	72.8	72.8	72.8	64	59.9	0	1	292	0.00	30.081 
10:15	73.3	73.3	73.3	64	60.4	0	1	292	0.00	30.082 
10:20	73.5	73.5	73.5	64	60.6	0	1	292	0.00	30.082 
10:25	74.0	74.0	74.0	63	60.6	0	0	---	0.00	30.082 
10:30	74.4	74.4	74.4	63	61.0	0	1	292	0.00	30.072 
10:35	74.4	74.4	74.4	62	60.5	0	0	---	0.00	30.072 
10:40	74.4	74.4	74.4	62	60.5	0	0	---	0.00	30.072 
10:45	74.4	74.4	74.4	63	61.0	0	1	292	0.00	30.071 
10:50	74.6	74.6	74.6	60	59.8	0	1	292	0.00	30.071 
10:55	74.7	74.7	74.7	62	60.8	0	1	292	0.00	30.071 
11:00	74.9	74.9	74.9	62	61.0	0	0	---	0.00	30.071 
11:05	75.3	75.3	77.6	58	59.5	0	0	---	0.00	30.071 
11:10	75.8	75.8	77.9	59	60.4	0	1	292	0.00	30.071 
11:15	75.8	75.8	77.9	58	59.9	0	1	292	0.00	30.070 
11:20	76.0	76.0	78.0	59	60.6	0	1	292	0.00	30.070 
11:25	76.1	76.1	78.1	57	59.7	0	1	292	0.00	30.070 
11:30	76.3	76.3	78.3	56	59.4	0	1	292	0.00	30.074 
11:35	76.3	76.3	78.3	56	59.4	0	1	292	0.00	30.074 
11:40	76.7	76.7	78.5	57	60.3	0	3	292	0.00	30.074 
11:45	77.0	77.0	78.7	57	60.6	0	1	292	0.00	30.075 
11:50	77.2	77.2	78.9	57	60.8	0	1	292	0.00	30.075 
11:55	77.6	77.6	79.2	55	60.1	0	1	292	0.00	30.075 
12:00	77.9	77.9	79.3	54	59.9	0	1	292	0.00	30.069 
12:05	78.3	78.3	79.7	55	60.8	0	0	---	0.00	30.069 
12:10	79.0	79.0	80.2	53	60.4	0	1	292	0.00	30.069 
12:15	79.8	79.8	80.6	50	59.5	0	1	292	0.00	30.067 
12:20	79.9	79.9	80.8	51	60.1	0	1	292	0.00	30.067 
12:25	79.6	79.6	80.5	51	59.9	0	1	292	0.00	30.067 
12:30	79.4	79.4	80.6	54	61.3	0	1	292	0.00	30.066 
12:35	79.6	79.6	80.5	50	59.3	1	3	292	0.00	30.066 
12:40	79.6	79.6	80.5	50	59.3	0	3	90	0.00	30.066 
12:45	79.4	79.4	80.5	53	60.8	0	1	90	0.00	30.066 
12:50	79.9	79.9	80.8	51	60.1	1	3	90	0.00	30.066 
12:55	80.3	80.3	81.1	50	59.9	1	3	90	0.00	30.066 
13:00	80.5	80.5	80.9	47	58.4	0	2	90	0.00	30.069 
13:05	80.7	80.7	81.7	52	61.4	0	1	90	0.00	30.069 
13:10	81.1	81.1	81.5	47	58.9	0	2	90	0.00	30.069 
13:15	81.1	81.1	81.7	49	60.1	1	4	90	0.00	30.063 
13:20	81.1	81.1	81.6	48	59.5	1	3	90	0.00	30.063 
13:25	81.4	81.4	82.1	50	60.9	0	3	90	0.00	30.063 
13:30	81.4	81.4	81.9	48	59.8	1	2	90	0.00	30.063 
13:35	81.1	81.1	81.7	49	60.1	0	2	90	0.00	30.063 
13:40	80.9	80.9	81.3	47	58.8	2	5	68	0.00	30.063 
13:45	80.7	80.7	81.3	49	59.7	1	4	68	0.00	30.062 
13:50	80.9	80.9	81.5	49	59.9	0	2	68	0.00	30.062 
13:55	80.9	80.9	81.2	46	58.2	0	1	68	0.00	30.062 
14:00	80.9	80.9	81.5	49	59.9	2	6	90	0.00	30.055 
14:05	80.9	80.9	81.2	46	58.2	1	6	90	0.00	30.055 
14:10	81.2	81.2	81.6	47	59.0	0	2	90	0.00	30.055 
14:15	81.4	81.4	82.0	49	60.4	1	3	90	0.00	30.052 
14:20	81.6	81.6	82.1	48	60.0	0	2	90	0.00	30.052 
14:25	81.4	81.4	81.5	45	58.0	1	3	90	0.00	30.052 
14:30	81.2	81.2	81.5	46	58.4	0	1	90	0.00	30.050 
14:35	81.4	81.4	81.6	46	58.6	0	3	90	0.00	30.050 
14:40	82.0	82.0	82.2	46	59.1	0	3	90	0.00	30.050 
14:45	82.4	82.4	82.2	43	57.6	0	2	90	0.00	30.043 
14:50	82.8	82.8	82.4	42	57.3	0	2	90	0.00	30.043 
14:55	82.8	82.8	82.6	43	58.0	1	5	90	0.00	30.043 
15:00	82.2	82.2	82.3	45	58.7	1	4	90	0.00	30.039 
15:05	81.6	81.6	81.8	46	58.8	1	5	90	0.00	30.039 
15:10	81.6	81.6	82.1	48	60.0	0	3	90	0.00	30.039 
15:15	81.8	81.8	81.6	43	57.1	0	2	90	0.00	30.042 
15:20	81.8	81.8	81.6	43	57.1	0	1	90	0.00	30.042 
15:25	81.8	81.8	81.6	43	57.1	1	3	90	0.00	30.042 
15:30	81.8	81.8	81.6	43	57.1	0	2	90	0.00	30.045 
15:35	82.0	82.0	82.2	46	59.1	0	1	90	0.00	30.045 
15:40	82.0	82.0	81.8	43	57.3	0	1	90	0.00	30.045 
15:45	82.0	82.0	82.2	46	59.1	0	1	90	0.00	30.046 
15:50	82.2	82.2	82.3	45	58.7	0	1	90	0.00	30.046 
15:55	82.0	82.0	82.1	45	58.5	0	3	90	0.00	30.046 
16:00	81.8	81.8	81.9	45	58.4	1	4	90	0.00	30.038 
16:05	81.6	81.6	81.7	45	58.2	0	1	90	0.00	30.038 
16:10	81.8	81.8	81.8	44	57.7	0	2	90	0.00	30.038 
16:15	82.0	82.0	81.8	43	57.3	0	2	90	0.00	30.036 
16:20	82.2	82.2	81.7	41	56.1	0	2	90	0.00	30.036 
16:25	82.4	82.4	81.9	41	56.3	0	2	90	0.00	30.036 
16:30	82.6	82.6	82.8	46	59.7	1	5	90	0.00	30.034 
16:35	82.4	82.4	82.2	43	57.6	0	1	90	0.00	30.034 
16:40	82.2	82.2	82.4	46	59.3	0	1	90	0.00	30.034 
16:45	82.0	82.0	82.1	45	58.5	1	3	90	0.00	30.034 
16:50	81.6	81.6	81.7	45	58.2	0	1	90	0.00	30.034 
16:55	81.4	81.4	81.6	46	58.6	0	3	90	0.00	30.034 
17:00	81.1	81.1	81.4	46	58.3	1	5	90	0.00	30.034 
17:05	80.9	80.9	81.1	45	57.5	0	1	90	0.00	30.034 
17:10	80.9	80.9	81.2	46	58.2	0	2	90	0.00	30.034 
17:15	80.7	80.7	81.0	46	58.0	0	1	90	0.00	30.036 
17:20	80.7	80.7	81.0	46	58.0	0	1	90	0.00	30.036 
17:25	80.7	80.7	81.0	46	58.0	0	2	90	0.00	30.036 
17:30	80.1	80.1	80.5	46	57.4	1	3	90	0.00	30.030 
17:35	79.9	79.9	80.4	47	57.8	0	1	90	0.00	30.030 
17:40	79.8	79.8	80.5	48	58.3	0	1	90	0.00	30.030 
17:45	79.6	79.6	80.2	47	57.6	0	1	90	0.00	30.032 
17:50	79.6	79.6	80.3	48	58.2	0	1	90	0.00	30.032 
17:55	79.8	79.8	80.5	48	58.3	0	1	90	0.00	30.032 
18:00	79.8	79.8	80.5	48	58.3	0	1	90	0.00	30.030 
18:05	79.6	79.6	80.2	47	57.6	0	1	90	0.00	30.030 
18:10	79.4	79.4	80.2	49	58.5	0	1	90	0.00	30.030 
18:15	79.4	79.4	80.1	48	58.0	0	0	---	0.00	30.032 
18:20	79.2	79.2	80.0	48	57.8	0	0	---	0.00	30.032 
18:25	79.0	79.0	80.0	50	58.7	0	0	---	0.00	30.032 
18:30	79.0	79.0	80.0	51	59.3	0	0	---	0.00	30.033 
18:35	78.8	78.8	79.8	50	58.6	0	0	---	0.00	30.033 
18:40	78.8	78.8	79.9	51	59.1	0	0	---	0.00	30.033 
18:45	78.6	78.6	79.8	52	59.5	0	0	---	0.00	30.034 
18:50	78.5	78.5	79.8	54	60.4	0	0	---	0.00	30.034 
18:55	78.3	78.3	79.7	54	60.3	0	0	---	0.00	30.034 
19:00	78.3	78.3	79.5	51	58.7	0	0	---	0.00	30.032 
19:05	78.3	78.3	79.5	51	58.7	0	0	---	0.00	30.032 
19:10	78.3	78.3	79.6	52	59.2	0	0	---	0.00	30.032 
19:15	78.1	78.1	79.4	52	59.0	0	0	---	0.00	30.028 
19:20	78.1	78.1	79.5	54	60.1	0	0	---	0.00	30.028 
19:25	78.1	78.1	79.4	52	59.0	0	0	---	0.00	30.028 
19:30	77.9	77.9	79.3	52	58.8	0	0	---	0.00	30.026 
19:35	77.9	77.9	79.3	53	59.4	0	0	---	0.00	30.026 
19:40	77.9	77.9	79.3	54	59.9	0	0	---	0.00	30.026 
19:45	77.9	77.9	79.4	55	60.4	0	0	---	0.00	30.019 
19:50	77.7	77.7	79.2	54	59.7	0	0	---	0.00	30.019 
19:55	77.6	77.6	79.1	54	59.6	0	1	90	0.00	30.019 
20:00	77.6	77.6	79.2	55	60.1	0	0	---	0.00	30.018 
20:05	77.6	77.6	79.1	54	59.6	0	0	---	0.00	30.018 
20:10	77.4	77.4	79.0	54	59.4	0	0	---	0.00	30.018 
20:15	77.4	77.4	79.0	55	59.9	0	0	---	0.00	30.014 
20:20	77.4	77.4	79.0	54	59.4	0	0	---	0.00	30.014 
20:25	77.4	77.4	79.0	55	59.9	0	0	---	0.00	30.014 
20:30	77.2	77.2	78.9	55	59.8	0	0	---	0.00	30.014 
20:35	77.0	77.0	78.7	57	60.6	0	0	---	0.00	30.014 
20:40	76.8	76.8	78.6	58	60.9	0	0	---	0.00	30.014 
20:45	76.7	76.7	78.5	58	60.8	0	0	---	0.00	30.012 
20:50	76.3	76.3	78.2	59	60.9	0	0	---	0.00	30.012 
20:55	76.0	76.0	78.0	59	60.6	0	0	---	0.00	30.012 
21:00	75.6	75.6	77.7	61	61.2	0	0	---	0.00	30.014 
21:05	75.3	75.3	77.5	62	61.4	0	0	---	0.00	30.014 
21:10	74.7	74.7	74.7	62	60.8	0	0	---	0.00	30.014 
21:15	74.4	74.4	74.4	63	61.0	0	0	---	0.00	30.013 
21:20	74.0	74.0	74.0	64	61.0	0	0	---	0.00	30.013 
21:25	73.5	73.5	73.5	64	60.6	0	0	---	0.00	30.013 
21:30	73.3	73.3	73.3	65	60.8	0	0	---	0.00	30.014 
21:35	72.8	72.8	72.8	65	60.3	0	0	---	0.00	30.014 
21:40	72.5	72.5	72.5	66	60.5	0	0	---	0.00	30.014 
21:45	72.0	72.0	72.0	67	60.4	0	0	---	0.00	30.015 
21:50	71.6	71.6	71.6	68	60.5	0	0	---	0.00	30.015 
21:55	71.1	71.1	71.1	69	60.4	0	0	---	0.00	30.015 
22:00	70.9	70.9	70.9	70	60.6	0	0	---	0.00	30.020 
22:05	70.4	70.4	70.4	71	60.5	0	0	---	0.00	30.020 
22:10	70.3	70.3	70.3	72	60.8	0	0	---	0.00	30.020 
22:15	69.9	69.9	69.9	73	60.8	0	0	---	0.00	30.019 
22:20	69.6	69.6	69.6	74	60.9	0	0	---	0.00	30.019 
22:25	69.4	69.4	69.4	76	61.5	0	0	---	0.00	30.019 
22:30	69.1	69.1	69.1	77	61.6	0	0	---	0.00	30.022 
22:35	68.9	68.9	68.9	77	61.4	0	0	---	0.00	30.022 
22:40	68.8	68.8	68.8	79	62.0	0	0	---	0.00	30.022 
22:45	68.4	68.4	68.4	79	61.6	0	0	---	0.00	30.025 
22:50	68.3	68.3	68.3	81	62.2	0	0	---	0.00	30.025 
22:55	68.3	68.3	68.3	82	62.6	0	0	---	0.00	30.025 
23:00	68.1	68.1	68.1	83	62.7	0	0	---	0.00	30.030 
23:05	67.9	67.9	67.9	83	62.5	0	0	---	0.00	30.030 
23:10	67.6	67.6	67.6	83	62.2	0	0	---	0.00	30.030 
23:15	67.4	67.4	67.4	84	62.4	0	0	---	0.00	30.027 
23:20	67.3	67.3	67.3	84	62.3	0	0	---	0.00	30.027 
23:25	67.1	67.1	67.1	84	62.1	0	0	---	0.00	30.027 
23:30	66.9	66.9	66.9	84	61.9	0	0	---	0.00	30.026 
23:35	66.8	66.8	66.8	85	62.1	0	0	---	0.00	30.026 
23:40	66.6	66.6	66.6	85	61.9	0	0	---	0.00	30.026 
23:45	66.4	66.4	66.4	85	61.7	0	0	---	0.00	30.025 
23:50	66.3	66.3	66.3	86	62.0	0	0	---	0.00	30.025 
23:55	66.1	66.1	66.1	86	61.8	0	0	---	0.00	30.025 

CoCoRaHS
IN-AL-39
A2 Web Hosting
Creative Commons License
GoDaddy
search engine by freefind advanced

loaded 2018-11-20 06:54:09 • last modified 2010-11-18 10:43:29
Privacy PolicyDisclaimer
• wx.awcolley.com is powered by PmWiki v.2002016 •
• all content (unless otherwise noted) © 2018 A W Colley